createdAt,value
2022-12-03T00:01:19.539Z,3.06
2022-12-03T00:03:23.935Z,2.68
2022-12-03T00:06:13.033Z,3.47
2022-12-03T00:08:53.932Z,3.63
2022-12-03T00:14:27.819Z,3.26
2022-12-03T00:16:59.551Z,2.64
2022-12-03T00:19:29.698Z,4.00
2022-12-03T00:22:14.390Z,3.66
2022-12-03T00:25:05.893Z,2.89
2022-12-03T00:27:36.727Z,3.89
2022-12-03T00:30:18.824Z,3.65
2022-12-03T00:33:06.226Z,3.92
2022-12-03T00:35:51.480Z,2.84
2022-12-03T00:38:23.543Z,3.15
2022-12-03T00:40:58.056Z,4.15
2022-12-03T00:49:24.378Z,3.10
2022-12-03T00:52:05.430Z,4.29
2022-12-03T00:54:45.223Z,4.16
2022-12-03T00:57:21.998Z,3.41
2022-12-03T00:59:56.800Z,4.14
2022-12-03T01:02:50.903Z,3.47
2022-12-03T01:05:23.498Z,3.70
2022-12-03T01:07:50.441Z,3.33
2022-12-03T01:10:55.040Z,4.58
2022-12-03T01:13:24.042Z,4.62
2022-12-03T01:16:00.916Z,4.32
2022-12-03T01:18:58.067Z,4.62
2022-12-03T01:21:41.976Z,4.00
2022-12-03T01:27:08.434Z,4.59
2022-12-03T01:32:23.492Z,4.05
2022-12-03T01:38:13.780Z,3.46
2022-12-03T01:46:45.713Z,3.52
2022-12-03T01:49:26.151Z,3.47
2022-12-03T01:52:12.676Z,3.53
2022-12-03T01:54:49.402Z,4.45
2022-12-03T01:57:27.700Z,4.73
2022-12-03T02:00:23.141Z,4.12
2022-12-03T02:02:57.884Z,3.53
2022-12-03T02:05:35.243Z,3.67
2022-12-03T02:08:25.074Z,4.78
2022-12-03T02:11:01.187Z,4.82
2022-12-03T02:13:31.957Z,4.63
2022-12-03T02:16:07.694Z,4.50
2022-12-03T02:18:34.917Z,4.63
2022-12-03T02:21:12.727Z,3.98
2022-12-03T02:24:22.976Z,5.15
2022-12-03T02:26:58.070Z,5.14
2022-12-03T02:29:29.855Z,5.17
2022-12-03T02:32:13.097Z,4.57
2022-12-03T02:34:46.818Z,4.39
2022-12-03T02:37:23.722Z,3.99
2022-12-03T02:40:01.030Z,4.02
2022-12-03T02:43:05.249Z,3.78
2022-12-03T02:46:15.070Z,5.13
2022-12-03T02:48:45.019Z,4.29
2022-12-03T02:51:13.670Z,5.14
2022-12-03T02:53:57.510Z,4.90
2022-12-03T02:56:40.006Z,5.15
2022-12-03T02:59:26.589Z,3.78
2022-12-03T03:02:13.352Z,4.85
2022-12-03T03:05:02.848Z,3.69
2022-12-03T03:08:02.718Z,5.04
2022-12-03T03:10:41.253Z,5.00
2022-12-03T03:13:13.085Z,4.75
2022-12-03T03:15:56.489Z,5.08
2022-12-03T03:18:45.444Z,3.97
2022-12-03T03:21:17.796Z,4.70
2022-12-03T03:23:55.034Z,4.91
2022-12-03T03:26:42.492Z,3.68
2022-12-03T03:29:13.022Z,3.94
2022-12-03T03:32:10.550Z,4.90
2022-12-03T03:34:41.450Z,3.90
2022-12-03T03:37:39.650Z,3.96
2022-12-03T03:40:22.174Z,4.88
2022-12-03T03:42:54.441Z,4.83
2022-12-03T03:45:34.165Z,3.98
2022-12-03T03:48:03.985Z,4.77
2022-12-03T03:50:39.886Z,4.85
2022-12-03T03:53:10.544Z,4.84
2022-12-03T03:55:46.751Z,4.50
2022-12-03T03:58:41.438Z,4.84
2022-12-03T04:01:17.998Z,4.62
2022-12-03T04:03:54.013Z,3.94
2022-12-03T04:06:36.967Z,4.49
2022-12-03T04:09:13.951Z,4.41
2022-12-03T04:11:50.837Z,4.46
2022-12-03T04:14:35.469Z,4.05
2022-12-03T04:17:13.061Z,3.78
2022-12-03T04:19:46.908Z,3.49
2022-12-03T04:22:23.159Z,3.53
2022-12-03T04:27:33.402Z,3.54
2022-12-03T04:30:24.733Z,4.54
2022-12-03T04:33:09.828Z,4.01
2022-12-03T04:38:47.546Z,4.59
2022-12-03T04:41:27.075Z,4.65
2022-12-03T04:44:19.079Z,3.92
2022-12-03T04:53:18.857Z,4.60
2022-12-03T04:56:18.253Z,3.44
2022-12-03T04:59:06.638Z,3.54
2022-12-03T05:01:55.989Z,3.37
2022-12-03T05:04:41.397Z,3.44
2022-12-03T05:07:09.657Z,4.20
2022-12-03T05:09:37.951Z,4.31
2022-12-03T05:12:08.722Z,3.54
2022-12-03T05:14:43.877Z,4.14
2022-12-03T05:17:11.818Z,4.10
2022-12-03T05:19:46.912Z,4.47
2022-12-03T05:22:17.264Z,3.40
2022-12-03T05:25:02.477Z,4.43
2022-12-03T05:27:56.013Z,4.09
2022-12-03T05:30:35.378Z,3.35
2022-12-03T05:35:52.253Z,4.05
2022-12-03T05:38:27.965Z,4.02
2022-12-03T05:41:22.417Z,3.06
2022-12-03T05:44:35.125Z,3.86
2022-12-03T05:50:05.981Z,4.04
2022-12-03T05:58:48.014Z,3.08
2022-12-03T06:02:08.092Z,3.06
2022-12-03T06:04:41.455Z,4.27
2022-12-03T06:07:22.705Z,3.17
2022-12-03T06:10:04.409Z,3.21
2022-12-03T06:12:38.854Z,3.80
2022-12-03T06:15:17.113Z,3.00
2022-12-03T06:17:44.287Z,3.29
2022-12-03T06:20:27.497Z,4.28
2022-12-03T06:22:56.282Z,3.75
2022-12-03T06:25:34.721Z,4.35
2022-12-03T06:28:06.021Z,4.20
2022-12-03T06:33:23.599Z,3.95
2022-12-03T06:39:20.304Z,2.92
2022-12-03T06:41:51.162Z,4.12
2022-12-03T06:44:20.918Z,3.32
2022-12-03T06:46:55.037Z,4.10
2022-12-03T06:49:25.239Z,2.98
2022-12-03T06:52:07.249Z,3.57
2022-12-03T06:54:45.670Z,3.68
2022-12-03T06:57:17.856Z,3.15
2022-12-03T06:59:45.405Z,3.64
2022-12-03T07:02:15.348Z,3.90
2022-12-03T07:04:49.962Z,4.11
2022-12-03T07:07:31.640Z,4.36
2022-12-03T07:10:11.954Z,4.08
2022-12-03T07:12:44.972Z,4.32
2022-12-03T07:15:12.001Z,3.24
2022-12-03T07:17:38.873Z,3.19
2022-12-03T07:20:11.877Z,4.25
2022-12-03T07:22:45.667Z,3.27
2022-12-03T07:25:23.842Z,4.09
2022-12-03T07:27:52.611Z,4.14
2022-12-03T07:30:19.606Z,3.83
2022-12-03T07:32:48.613Z,3.31
2022-12-03T07:35:20.271Z,4.20
2022-12-03T07:37:49.218Z,3.66
2022-12-03T07:40:28.295Z,3.89
2022-12-03T07:43:02.319Z,3.03
2022-12-03T07:45:41.939Z,4.27
2022-12-03T07:48:13.588Z,3.70
2022-12-03T07:50:43.848Z,3.74
2022-12-03T07:53:16.684Z,3.18
2022-12-03T07:55:43.497Z,3.01
2022-12-03T07:58:34.768Z,3.81
2022-12-03T08:01:11.525Z,2.97
2022-12-03T08:03:41.364Z,3.02
2022-12-03T08:06:08.122Z,2.99
2022-12-03T08:08:45.373Z,3.03
2022-12-03T08:11:18.606Z,3.87
2022-12-03T08:13:56.670Z,3.85
2022-12-03T08:16:23.451Z,3.56
2022-12-03T08:18:54.596Z,3.32
2022-12-03T08:21:27.133Z,3.04
2022-12-03T08:24:12.185Z,4.16
2022-12-03T08:26:39.417Z,3.26
2022-12-03T08:29:13.160Z,4.06
2022-12-03T08:31:40.993Z,3.43
2022-12-03T08:34:17.846Z,3.92
2022-12-03T08:36:46.289Z,4.05
2022-12-03T08:39:28.980Z,3.94
2022-12-03T08:42:01.826Z,4.05
2022-12-03T08:44:30.554Z,3.95
2022-12-03T08:47:07.164Z,3.90
2022-12-03T08:49:33.891Z,3.57
2022-12-03T08:52:11.142Z,4.01
2022-12-03T08:54:39.485Z,4.02
2022-12-03T08:57:25.151Z,3.80
2022-12-03T08:59:55.905Z,3.92
2022-12-03T09:02:32.260Z,4.08
2022-12-03T09:05:03.129Z,4.14
2022-12-03T09:07:30.241Z,3.98
2022-12-03T09:10:03.393Z,4.14
2022-12-03T09:12:30.752Z,4.14
2022-12-03T09:14:58.097Z,3.93
2022-12-03T09:17:24.984Z,4.19
2022-12-03T09:19:51.984Z,4.19
2022-12-03T09:22:20.386Z,3.73
2022-12-03T09:24:47.388Z,4.21
2022-12-03T09:27:15.567Z,4.10
2022-12-03T09:29:42.234Z,3.90
2022-12-03T09:32:11.476Z,3.62
2022-12-03T09:34:41.951Z,2.99
2022-12-03T09:37:08.863Z,4.12
2022-12-03T09:39:35.963Z,3.48
2022-12-03T09:42:03.156Z,3.83
2022-12-03T09:44:35.682Z,3.69
2022-12-03T09:47:04.670Z,3.57
2022-12-03T09:49:32.965Z,4.16
2022-12-03T09:52:06.361Z,3.80
2022-12-03T09:54:34.184Z,4.20
2022-12-03T09:57:03.756Z,4.00
2022-12-03T09:59:33.686Z,3.93
2022-12-03T10:03:03.928Z,3.27
2022-12-03T10:06:16.363Z,3.23
2022-12-03T10:08:56.129Z,2.83
2022-12-03T10:11:29.261Z,3.41
2022-12-03T10:13:57.670Z,3.95
2022-12-03T10:16:27.018Z,3.95
2022-12-03T10:18:55.907Z,3.83
2022-12-03T10:21:30.637Z,3.74
2022-12-03T10:24:21.145Z,3.90
2022-12-03T10:26:49.547Z,3.78
2022-12-03T10:29:19.874Z,3.84
2022-12-03T10:31:55.107Z,4.01
2022-12-03T10:34:27.006Z,3.55
2022-12-03T10:37:11.734Z,3.90
2022-12-03T10:39:59.262Z,4.01
2022-12-03T10:42:27.172Z,3.66
2022-12-03T10:45:24.080Z,3.84
2022-12-03T10:48:11.392Z,3.90
2022-12-03T10:50:46.328Z,3.94
2022-12-03T10:53:13.303Z,3.97
2022-12-03T10:55:42.225Z,4.02
2022-12-03T10:58:17.708Z,3.84
2022-12-03T11:00:44.578Z,3.87
2022-12-03T11:03:21.558Z,3.93
2022-12-03T11:05:49.433Z,3.99
2022-12-03T11:08:18.569Z,3.90
2022-12-03T11:10:46.176Z,4.00
2022-12-03T11:13:44.578Z,4.15
2022-12-03T11:16:11.808Z,4.04
2022-12-03T11:19:02.021Z,4.26
2022-12-03T11:21:29.203Z,4.15
2022-12-03T11:24:27.087Z,4.18
2022-12-03T11:27:19.069Z,4.04
2022-12-03T11:29:58.029Z,3.98
2022-12-03T11:33:07.690Z,3.93
2022-12-03T11:36:13.418Z,3.76
2022-12-03T11:38:57.423Z,4.05
2022-12-03T11:41:30.368Z,3.98
2022-12-03T11:44:17.489Z,3.99
2022-12-03T11:46:47.112Z,3.91
2022-12-03T11:49:34.528Z,3.96
2022-12-03T11:52:11.757Z,4.03
2022-12-03T11:54:38.512Z,4.10
2022-12-03T11:57:25.473Z,4.07
2022-12-03T12:00:18.267Z,4.00
2022-12-03T12:02:45.336Z,4.09
2022-12-03T12:05:21.379Z,3.92
2022-12-03T12:07:50.119Z,3.31
2022-12-03T12:10:43.451Z,3.95
2022-12-03T12:13:51.077Z,4.01
2022-12-03T12:16:51.565Z,3.90
2022-12-03T12:19:39.707Z,3.97
2022-12-03T12:22:18.490Z,4.03
2022-12-03T12:24:49.359Z,3.96
2022-12-03T12:27:18.738Z,3.89
2022-12-03T12:29:50.796Z,3.86
2022-12-03T12:32:21.313Z,4.14
2022-12-03T12:34:50.307Z,4.17
2022-12-03T12:37:22.871Z,4.05
2022-12-03T12:39:54.252Z,3.96
2022-12-03T12:42:29.634Z,4.21
2022-12-03T12:44:59.831Z,4.14
2022-12-03T12:47:28.733Z,4.17
2022-12-03T12:49:56.541Z,3.92
2022-12-03T12:52:24.515Z,4.11
2022-12-03T12:54:52.567Z,3.83
2022-12-03T12:57:24.794Z,4.03
2022-12-03T12:59:53.962Z,3.94
2022-12-03T13:02:41.154Z,3.11
2022-12-03T13:05:11.730Z,3.61
2022-12-03T13:07:41.635Z,4.21
2022-12-03T13:10:36.105Z,3.92
2022-12-03T13:13:17.596Z,3.90
2022-12-03T13:15:47.523Z,3.98
2022-12-03T13:18:24.542Z,3.58
2022-12-03T13:20:51.402Z,3.81
2022-12-03T13:23:27.404Z,3.96
2022-12-03T13:26:02.005Z,4.00
2022-12-03T13:28:32.169Z,4.01
2022-12-03T13:31:15.788Z,3.63
2022-12-03T13:33:42.799Z,3.47
2022-12-03T13:36:14.773Z,3.53
2022-12-03T13:38:42.474Z,3.74
2022-12-03T13:41:14.756Z,3.69
2022-12-03T13:43:44.492Z,3.45
2022-12-03T13:46:16.646Z,3.16
2022-12-03T13:48:43.484Z,3.68
2022-12-03T13:51:25.888Z,3.64
2022-12-03T13:53:53.515Z,3.64
2022-12-03T13:56:27.493Z,3.56
2022-12-03T13:58:56.359Z,3.24
2022-12-03T14:01:23.634Z,3.68
2022-12-03T14:03:52.747Z,3.01
2022-12-03T14:06:19.432Z,3.72
2022-12-03T14:08:46.388Z,3.58
2022-12-03T14:11:13.195Z,3.57
2022-12-03T14:13:41.308Z,3.25
2022-12-03T14:16:08.156Z,3.40
2022-12-03T14:18:34.873Z,3.47
2022-12-03T14:21:01.649Z,2.89
2022-12-03T14:23:28.359Z,3.29
2022-12-03T14:25:55.385Z,3.26
2022-12-03T14:28:22.107Z,3.60
2022-12-03T14:30:50.295Z,3.34
2022-12-03T14:33:17.242Z,3.47
2022-12-03T14:35:43.993Z,3.36
2022-12-03T14:38:10.872Z,3.28
2022-12-03T14:40:37.599Z,3.25
2022-12-03T14:43:04.230Z,2.84
2022-12-03T14:45:31.214Z,3.20
2022-12-03T14:47:59.683Z,3.30
2022-12-03T14:50:26.620Z,3.11
2022-12-03T14:52:55.603Z,3.33
2022-12-03T14:55:22.357Z,3.08
2022-12-03T14:57:49.135Z,3.43
2022-12-03T15:00:17.469Z,3.33
2022-12-03T15:02:47.289Z,3.27
2022-12-03T15:05:16.021Z,3.34
2022-12-03T15:07:43.859Z,3.22
2022-12-03T15:10:11.450Z,3.02
2022-12-03T15:12:38.122Z,3.19
2022-12-03T15:15:06.009Z,3.13
2022-12-03T15:17:32.768Z,3.10
2022-12-03T15:19:59.821Z,2.88
2022-12-03T15:22:29.028Z,3.08
2022-12-03T15:24:55.730Z,3.02
2022-12-03T15:27:22.612Z,3.08
2022-12-03T15:29:49.597Z,2.96
2022-12-03T15:32:18.388Z,2.08
2022-12-03T15:34:45.317Z,3.20
2022-12-03T15:37:12.042Z,2.93
2022-12-03T15:39:48.421Z,2.75
2022-12-03T15:42:15.603Z,2.86
2022-12-03T15:44:42.230Z,2.51
2022-12-03T15:47:08.958Z,2.86
2022-12-03T15:49:35.673Z,2.54
2022-12-03T15:52:02.457Z,2.70
2022-12-03T15:54:29.345Z,1.98
2022-12-03T15:56:57.796Z,2.85
2022-12-03T15:59:24.532Z,2.89
2022-12-03T16:01:51.470Z,2.42
2022-12-03T16:04:20.637Z,2.81
2022-12-03T16:06:47.446Z,2.85
2022-12-03T16:09:14.157Z,1.77
2022-12-03T16:11:53.664Z,2.94
2022-12-03T16:14:21.905Z,2.89
2022-12-03T16:16:50.405Z,1.49
2022-12-03T16:19:17.120Z,2.85
2022-12-03T16:21:46.071Z,2.64
2022-12-03T16:24:13.031Z,2.89
2022-12-03T16:26:39.796Z,2.70
2022-12-03T16:29:06.704Z,1.81
2022-12-03T16:31:37.743Z,2.72
2022-12-03T16:34:04.815Z,2.19
2022-12-03T16:36:31.578Z,1.82
2022-12-03T16:38:59.480Z,1.63
2022-12-03T16:41:29.231Z,2.22
2022-12-03T16:43:56.476Z,1.77
2022-12-03T16:46:23.220Z,2.88
2022-12-03T16:48:52.174Z,1.98
2022-12-03T16:51:19.669Z,2.58
2022-12-03T16:53:53.249Z,2.83
2022-12-03T16:56:22.019Z,2.82
2022-12-03T16:58:49.046Z,2.70
2022-12-03T17:01:15.781Z,2.88
2022-12-03T17:03:44.151Z,2.73
2022-12-03T17:06:12.295Z,2.88
2022-12-03T17:08:41.048Z,2.66
2022-12-03T17:11:13.048Z,1.67
2022-12-03T17:13:39.923Z,2.52
2022-12-03T17:16:07.483Z,1.96
2022-12-03T17:18:41.674Z,2.19
2022-12-03T17:21:09.752Z,2.31
2022-12-03T17:23:37.794Z,2.93
2022-12-03T17:26:05.038Z,2.86
2022-12-03T17:28:31.715Z,2.85
2022-12-03T17:30:58.638Z,2.83
2022-12-03T17:33:25.553Z,2.84
2022-12-03T17:35:52.687Z,2.87
2022-12-03T17:38:20.406Z,2.89
2022-12-03T17:40:48.457Z,2.59
2022-12-03T17:43:16.366Z,2.89
2022-12-03T17:45:43.188Z,2.78
2022-12-03T17:48:11.224Z,2.63
2022-12-03T17:50:38.450Z,2.64
2022-12-03T17:53:05.216Z,2.57
2022-12-03T17:55:38.529Z,2.20
2022-12-03T17:58:10.909Z,2.89
2022-12-03T18:00:37.960Z,2.33
2022-12-03T18:03:08.267Z,2.90
2022-12-03T18:05:50.938Z,1.50
2022-12-03T18:08:20.882Z,2.47
2022-12-03T18:10:47.858Z,2.21
2022-12-03T18:13:23.137Z,2.96
2022-12-03T18:15:50.628Z,2.66
2022-12-03T18:18:17.698Z,1.71
2022-12-03T18:20:44.667Z,1.71
2022-12-03T18:23:12.293Z,2.89
2022-12-03T18:25:39.356Z,2.85
2022-12-03T18:28:06.788Z,2.99
2022-12-03T18:30:35.412Z,2.10
2022-12-03T18:33:02.129Z,2.33
2022-12-03T18:35:29.225Z,3.02
2022-12-03T18:37:55.895Z,2.99
2022-12-03T18:40:24.744Z,2.81
2022-12-03T18:42:53.475Z,2.43
2022-12-03T18:45:20.426Z,3.08
2022-12-03T18:47:48.998Z,2.90
2022-12-03T18:50:18.106Z,2.89
2022-12-03T18:52:44.767Z,2.97
2022-12-03T18:55:16.949Z,2.82
2022-12-03T18:57:43.631Z,2.47
2022-12-03T19:00:13.841Z,2.95
2022-12-03T19:05:29.584Z,2.51
2022-12-03T19:07:56.572Z,2.05
2022-12-03T19:10:23.910Z,2.60
2022-12-03T19:12:52.278Z,2.92
2022-12-03T19:15:20.108Z,2.96
2022-12-03T19:17:48.299Z,2.97
2022-12-03T19:20:15.271Z,2.97
2022-12-03T19:22:44.565Z,2.96
2022-12-03T19:25:11.872Z,2.99
2022-12-03T19:27:41.544Z,2.89
2022-12-03T19:30:12.820Z,3.06
2022-12-03T19:32:39.716Z,3.04
2022-12-03T19:35:07.141Z,2.91
2022-12-03T19:37:34.453Z,2.40
2022-12-03T19:40:03.426Z,2.88
2022-12-03T19:42:30.188Z,1.94
2022-12-03T19:44:58.322Z,2.88
2022-12-03T19:47:25.042Z,2.98
2022-12-03T19:49:53.904Z,2.25
2022-12-03T19:52:20.866Z,2.91
2022-12-03T19:54:47.885Z,2.66
2022-12-03T19:57:22.867Z,2.68
2022-12-03T19:59:50.382Z,1.87
2022-12-03T20:02:17.236Z,2.15
2022-12-03T20:04:43.908Z,1.69
2022-12-03T20:07:10.950Z,2.78
2022-12-03T20:09:37.634Z,2.02
2022-12-03T20:12:05.121Z,2.85
2022-12-03T20:14:34.050Z,1.94
2022-12-03T20:17:01.266Z,2.04
2022-12-03T20:19:27.937Z,2.81
2022-12-03T20:22:00.762Z,2.31
2022-12-03T20:24:31.176Z,2.83
2022-12-03T20:26:58.052Z,2.80
2022-12-03T20:29:24.857Z,2.81
2022-12-03T20:31:53.168Z,2.79
2022-12-03T20:34:20.012Z,2.37
2022-12-03T20:36:46.757Z,2.81
2022-12-03T20:39:13.437Z,2.49
2022-12-03T20:41:40.169Z,1.85
2022-12-03T20:44:07.070Z,2.08
2022-12-03T20:46:34.525Z,2.71
2022-12-03T20:49:04.192Z,2.65
2022-12-03T20:51:31.455Z,1.69
2022-12-03T20:54:01.384Z,1.90
2022-12-03T20:56:31.662Z,2.28
2022-12-03T20:59:00.142Z,2.59
2022-12-03T21:01:27.887Z,2.46
2022-12-03T21:03:56.266Z,2.65
2022-12-03T21:06:26.490Z,2.53
2022-12-03T21:08:55.871Z,2.05
2022-12-03T21:11:25.504Z,2.01
2022-12-03T21:13:54.238Z,2.45
2022-12-03T21:16:39.316Z,2.49
2022-12-03T21:19:10.438Z,2.42
2022-12-03T21:21:39.518Z,2.27
2022-12-03T21:24:06.780Z,2.14
2022-12-03T21:26:33.941Z,2.52
2022-12-03T21:29:01.074Z,1.23
2022-12-03T21:31:28.505Z,2.47
2022-12-03T21:33:59.526Z,2.51
2022-12-03T21:36:26.453Z,2.50
2022-12-03T21:39:10.281Z,1.34
2022-12-03T21:41:37.615Z,1.73
2022-12-03T21:44:04.768Z,2.41
2022-12-03T21:47:09.453Z,1.61
2022-12-03T21:49:21.356Z,2.44
2022-12-03T21:51:48.368Z,2.29
2022-12-03T21:54:16.765Z,1.86
2022-12-03T21:56:45.782Z,1.41
2022-12-03T21:59:13.231Z,2.46
2022-12-03T22:01:45.582Z,2.40
2022-12-03T22:04:13.848Z,2.41
2022-12-03T22:06:40.840Z,1.56
2022-12-03T22:09:09.445Z,1.87
2022-12-03T22:11:37.684Z,1.88
2022-12-03T22:14:04.592Z,1.43
2022-12-03T22:16:34.499Z,2.04
2022-12-03T22:19:01.687Z,1.58
2022-12-03T22:21:28.561Z,1.97
2022-12-03T22:23:56.240Z,2.22
2022-12-03T22:26:23.400Z,0.92
2022-12-03T22:28:51.904Z,0.82
2022-12-03T22:31:19.100Z,0.88
2022-12-03T22:33:47.254Z,1.58
2022-12-03T22:36:20.510Z,1.86
2022-12-03T22:38:50.559Z,1.68
2022-12-03T22:41:19.034Z,1.87
2022-12-03T22:43:45.961Z,1.25
2022-12-03T22:46:17.642Z,1.38
2022-12-03T22:48:47.154Z,1.29
2022-12-03T22:51:16.125Z,1.08
2022-12-03T22:53:43.625Z,1.41
2022-12-03T22:56:10.737Z,0.94
2022-12-03T22:58:39.105Z,1.63
2022-12-03T23:01:07.914Z,1.57
2022-12-03T23:03:36.583Z,1.40
2022-12-03T23:06:09.536Z,1.62
2022-12-03T23:08:37.253Z,0.89
2022-12-03T23:11:04.390Z,1.60
2022-12-03T23:13:31.233Z,1.54
2022-12-03T23:15:58.106Z,1.26
2022-12-03T23:18:24.977Z,1.44
2022-12-03T23:20:55.899Z,1.44
2022-12-03T23:23:25.425Z,1.42
2022-12-03T23:25:59.321Z,1.56
2022-12-03T23:28:27.613Z,1.59
2022-12-03T23:30:54.621Z,1.41
2022-12-03T23:33:23.347Z,1.59
2022-12-03T23:35:53.800Z,1.32
2022-12-03T23:38:22.900Z,1.61
2022-12-03T23:40:49.691Z,1.24
2022-12-03T23:43:17.876Z,1.71
2022-12-03T23:45:45.028Z,1.68
2022-12-03T23:48:12.005Z,1.47
2022-12-03T23:50:41.936Z,1.78
2022-12-03T23:53:10.280Z,1.76
2022-12-03T23:55:39.299Z,1.83
2022-12-03T23:58:06.056Z,1.73
